27 czerwca 2022

Czas Kod Pogoda Temp. Widoczność Sufit Wiatr METAR/SPECI
3:25 pm
V
66 °F 6¼ mi+ 8.600 ft Var Var 1 kt METAR EHVL 271325Z AUTO VRB01KT 9999 FEW075 SCT080 BKN086 19/15 Q1016 BLU
2:55 pm
V
68 °F 6¼ mi+ 9.500 ft Var Var 2 kt METAR EHVL 271255Z AUTO VRB02KT 9999 FEW090 BKN095 OVC100 20/15 Q1015 BLU
2:25 pm
V
66 °F 6¼ mi+ 9.900 ft Var Var 1 kt METAR EHVL 271225Z AUTO VRB01KT 9999 FEW081 SCT088 BKN099 19/13 Q1015 BLU
1:55 pm
V
66 °F 6¼ mi+ 8.900 ft Var Var 1 kt METAR EHVL 271155Z AUTO VRB01KT 9999 FEW074 BKN089 OVC095 19/14 Q1016 BLU
1:25 pm
V
64 °F 6¼ mi+ 11.000 ft Var Var 1 kt METAR EHVL 271125Z AUTO VRB01KT 9999 OVC110 18/15 Q1016 BLU
12:55 pm
V
64 °F 6¼ mi+ 11.000 ft Var Var 2 kt METAR EHVL 271055Z AUTO VRB02KT 9999 OVC110 18/15 Q1016 BLU
12:25 pm
V
64 °F 6¼ mi+ 10.000 ft Var Var 2 kt METAR EHVL 271025Z AUTO VRB02KT 9999 OVC100 18/15 Q1015 BLU
11:55 am
V
66 °F 6¼ mi+ 19.000 ft 290° 290° 4 kt METAR EHVL 270955Z AUTO 29004KT 9999 OVC190 19/16 Q1016 BLU
11:25 am
V
64 °F 6¼ mi+ 17.000 ft 330° 330° 3 kt METAR EHVL 270925Z AUTO 33003KT 9999 OVC170 18/16 Q1015 BLU
10:55 am
V
66 °F 6¼ mi+ 20.000 ft 280° 280° 5 kt METAR EHVL 270855Z AUTO 28005KT 9999 OVC200 19/16 Q1015 BLU
10:25 am
V
64 °F 6¼ mi+ 21.000 ft 290° 290° 6 kt METAR EHVL 270825Z AUTO 29006KT 9999 FEW110 BKN210 OVC260 18/16 Q1015 BLU
9:55 am
V
66 °F 6¼ mi+ 19.000 ft 270° 270° 6 kt METAR EHVL 270755Z AUTO 27006KT 9999 OVC190 19/16 Q1015 BLU
9:25 am
V
66 °F 6¼ mi+ 24.000 ft 240° 240° 8 kt METAR EHVL 270725Z AUTO 24008KT 9999 OVC240 19/15 Q1015 BLU
8:55 am
V
66 °F 6¼ mi+ 11.000 ft 220° 220° 3 kt METAR EHVL 270655Z AUTO 22003KT 9999 OVC110 19/15 Q1015 BLU
8:25 am
M
66 °F 6¼ mi+ 2.900 ft 240° 240° 4 kt METAR EHVL 270625Z AUTO 24004KT 9999 FEW023 BKN029 OVC100 19/15 Q1014 BLU
8:14 am
M
68 °F 6¼ mi+ 2.400 ft 240° 240° 3 kt METAR EHVL 270614Z AUTO 24003KT 9999 SCT020 BKN024 BKN027 20/15 Q1014 WHT
8:10 am
V
68 °F 6¼ mi+ 19.000 ft 250° 250° 3 kt METAR EHVL 270610Z AUTO 25003KT 9999 SCT022 OVC190 20/16 Q1014 WHT
7:55 am
V
66 °F 6¼ mi+ 18.000 ft 270° 270° 1 kt METAR EHVL 270555Z AUTO 27001KT 9999 OVC180 19/16 Q1014 BLU
7:25 am
V
64 °F 6¼ mi+ 10.000 ft 190° 190° 3 kt METAR EHVL 270525Z AUTO 19003KT 9999 OVC100 18/15 Q1014 BLU
6:55 am
V
61 °F 6¼ mi+ 11.000 ft 160° 160° 4 kt METAR EHVL 270455Z AUTO 16004KT 9999 OVC110 16/14 Q1014 BLU
6:25 am
V
59 °F 6¼ mi+ 25.000 ft 160° 160° 4 kt METAR EHVL 270425Z AUTO 16004KT 9999 OVC250 15/14 Q1014 BLU
5:55 am
V
63 °F 6¼ mi+ 11.000 ft 180° 180° 5 kt METAR EHVL 270355Z AUTO 18005KT 9999 OVC110 17/14 Q1014 BLU
5:25 am
V
63 °F 6¼ mi+ 13.000 ft 140° 140° 7 kt METAR EHVL 270325Z AUTO 14007KT 9999 OVC130 17/14 Q1015 BLU
4:55 am
V
63 °F 6¼ mi+ 11.000 ft 140° 140° 8 kt METAR EHVL 270255Z AUTO 14008KT 9999 SCT087 SCT097 OVC110 17/14 Q1015 BLU
4:25 am
V
63 °F 6¼ mi+ 10.000 ft 130° 130° 8 kt METAR EHVL 270225Z AUTO 13008KT 9999 FEW094 OVC100 17/15 Q1015 BLU
3:55 am
V
63 °F 6¼ mi+ 10.000 ft 110° 110° 7 kt METAR EHVL 270155Z AUTO 11007KT 9999 OVC100 17/15 Q1015 BLU
3:25 am
V
61 °F 6¼ mi+ 10.000 ft 100° 100° 5 kt METAR EHVL 270125Z AUTO 10005KT 9999 FEW088 OVC100 16/15 Q1015 BLU
2:55 am
V
61 °F 6¼ mi+ 10.000 ft 080° 080° 3 kt METAR EHVL 270055Z AUTO 08003KT 9999 OVC100 16/14 Q1015 BLU
2:25 am
V
61 °F 6¼ mi+ 10.000 ft 090° 090° 6 kt METAR EHVL 270025Z AUTO 09006KT 9999 OVC100 16/14 Q1015 BLU
1:55 am
V
61 °F 6¼ mi+ 10.000 ft 060° 060° 7 kt METAR EHVL 262355Z AUTO 06007KT 9999 OVC100 16/13 Q1015 BLU
1:25 am
V
57 °F 6¼ mi+ 10.000 ft 070° 070° 6 kt METAR EHVL 262325Z AUTO 07006KT 9999 SCT095 OVC100 14/13 Q1015 BLU
12:55 am
V
57 °F 6¼ mi+ 10.000 ft 060° 060° 5 kt METAR EHVL 262255Z AUTO 06005KT 9999 FEW072 OVC100 14/13 Q1015 BLU
12:25 am
V
55 °F 6¼ mi+ 20.000 ft 070° 070° 4 kt METAR EHVL 262225Z AUTO 07004KT 9999 FEW075 SCT100 OVC200 13/11 Q1016 BLU

26 czerwca 2022

Czas Kod Pogoda Temp. Widoczność Sufit Wiatr METAR/SPECI
11:55 pm
V
55 °F 6¼ mi+ 19.000 ft 040° 040° 3 kt METAR EHVL 262155Z AUTO 04003KT 9999 SCT100 OVC190 13/11 Q1016 BLU
11:25 pm
V
57 °F 6¼ mi+ 23.000 ft 030° 030° 2 kt METAR EHVL 262125Z AUTO 03002KT 9999 OVC230 14/12 Q1016 BLU
10:55 pm
V
57 °F 6¼ mi+ 20.000 ft 020° 020° 2 kt METAR EHVL 262055Z AUTO 02002KT 9999 FEW040 SCT056 OVC200 14/12 Q1016 BLU
10:25 pm
V
59 °F 6¼ mi+ 3.400 ft 310° 310° 1 kt METAR EHVL 262025Z AUTO 31001KT 9999 BKN034 BKN039 OVC050 15/12 Q1016 BLU
9:55 pm
V
61 °F 6¼ mi+ 27.000 ft 310° 310° 2 kt METAR EHVL 261955Z AUTO 31002KT 9999 FEW038 SCT058 OVC270 16/12 Q1016 BLU
9:25 pm
V
63 °F 6¼ mi+ 4.600 ft 260° 260° 2 kt METAR EHVL 261925Z AUTO 26002KT 9999 FEW037 SCT042 BKN046 17/11 Q1015 BLU
8:55 pm
V
64 °F 6¼ mi+ 4.100 ft 230° 230° 2 kt METAR EHVL 261855Z AUTO 23002KT 9999 FEW035 BKN041 BKN046 18/09 Q1015 BLU
8:25 pm
V
64 °F 6¼ mi+ 22.000 ft 250° 250° 3 kt METAR EHVL 261825Z AUTO 25003KT 9999 FEW039 OVC220 18/08 Q1015 BLU
7:55 pm
V
64 °F 6¼ mi+ 3.300 ft 240° 240° 6 kt METAR EHVL 261755Z AUTO 24006KT 9999 BKN033 BKN038 OVC045 18/09 Q1015 BLU
7:25 pm
V
66 °F 6¼ mi+ 5.200 ft 250° 250° 8 kt METAR EHVL 261725Z AUTO 25008KT 9999 SCT035 SCT046 BKN052 19/10 Q1015 BLU
6:55 pm
V
66 °F 6¼ mi+ 20.000 ft 250° 250° 9 kt METAR EHVL 261655Z AUTO 25009KT 9999 FEW039 OVC200 19/12 Q1015 BLU
6:25 pm
V
66 °F 6¼ mi+ 22.000 ft 250° 250° 11 kt METAR EHVL 261625Z AUTO 25011KT 9999 OVC220 19/12 Q1015 BLU
5:55 pm
V
66 °F 6¼ mi+ 3.000 ft 240° 240° 12 kt METAR EHVL 261555Z AUTO 24012KT 9999 OVC030 19/12 Q1015 BLU
5:25 pm
M
66 °F 6¼ mi+ 2.900 ft 250° 250° 11 kt METAR EHVL 261525Z AUTO 25011KT 9999 BKN029 OVC033 19/12 Q1015 BLU
4:55 pm
V
68 °F 6¼ mi+ 3.000 ft 250° 250° 9 kt METAR EHVL 261455Z AUTO 25009KT 9999 BKN030 OVC036 20/13 Q1015 BLU
4:25 pm
V
66 °F 6¼ mi+ 19.000 ft 260° 260° 9 kt METAR EHVL 261425Z AUTO 26009KT 9999 OVC190 19/13 Q1015 BLU
3:55 pm
V
68 °F 6¼ mi+ 18.000 ft 270° 270° 8 kt METAR EHVL 261355Z AUTO 27008KT 230V290 9999 OVC180 20/13 Q1015 BLU
3:25 pm
V
68 °F 6¼ mi+ 24.000 ft 260° 260° 9 kt METAR EHVL 261325Z AUTO 26009KT 9999 OVC240 20/13 Q1015 BLU
2:55 pm
V
68 °F 6¼ mi+ 24.000 ft 250° 250° 9 kt METAR EHVL 261255Z AUTO 25009KT 9999 OVC240 20/14 Q1015 BLU
2:25 pm
V
64 °F 6¼ mi+ 18.000 ft 240° 240° 9 kt METAR EHVL 261225Z AUTO 24009KT 9999 OVC180 18/13 Q1015 BLU
1:55 pm
V
64 °F 6¼ mi+ 18.000 ft 240° 240° 9 kt METAR EHVL 261155Z AUTO 24009KT 210V270 9999 OVC180 18/13 Q1015 BLU
1:25 pm
V
66 °F 6¼ mi+ 20.000 ft 250° 250° 9 kt METAR EHVL 261125Z AUTO 25009KT 210V280 9999 OVC200 19/13 Q1015 BLU
12:55 pm
V
66 °F 6¼ mi+ 21.000 ft 250° 250° 10 kt METAR EHVL 261055Z AUTO 25010KT 9999 OVC210 19/13 Q1015 BLU
12:25 pm
V
64 °F 6¼ mi+ 18.000 ft 240° 240° 10 kt METAR EHVL 261025Z AUTO 24010KT 9999 OVC180 18/13 Q1015 BLU
11:55 am
V
66 °F 6¼ mi+ 20.000 ft 240° 240° 12 kt METAR EHVL 260955Z AUTO 24012KT 9999 OVC200 19/14 Q1015 BLU
11:29 am
V
64 °F 6¼ mi+ 19.000 ft 230° 230° 12 kt METAR EHVL 260929Z AUTO 23012KT 9999 FEW012 SCT015 OVC190 18/14 Q1015 WHT
11:25 am
M
64 °F 6¼ mi+ 1.500 ft 240° 240° 13 kt METAR EHVL 260925Z AUTO 24013KT 9999 SCT012 BKN015 OVC190 18/14 Q1015 GRN
11:14 am
M
66 °F 6¼ mi+ 1.500 ft 240° 240° 13 kt METAR EHVL 260914Z AUTO 24013KT 9999 SCT012 BKN015 OVC200 19/15 Q1015 GRN
11:13 am
V
64 °F 6¼ mi+ 21.000 ft 240° 240° 14 kt METAR EHVL 260913Z AUTO 24014KT 9999 FEW012 SCT014 OVC210 18/14 Q1014 GRN
11:08 am
V
64 °F 6¼ mi+ 21.000 ft 240° 240° 14 kt METAR EHVL 260908Z AUTO 24014KT 9999 FEW012 SCT015 BKN210 18/14 Q1014 WHT
10:59 am
V
64 °F 6¼ mi+ 23.000 ft 230° 230° 13 kt METAR EHVL 260859Z AUTO 23013KT 9999 FEW011 SCT150 OVC230 18/14 Q1014 BLU
10:55 am
V
64 °F 6¼ mi+ 15.000 ft 230° 230° 13 kt METAR EHVL 260855Z AUTO 23013KT 9999 SCT011 BKN150 OVC230 18/14 Q1014 GRN
10:25 am
V
64 °F 6¼ mi+ 15.000 ft 240° 240° 14 kt METAR EHVL 260825Z AUTO 24014KT 9999 OVC150 18/14 Q1014 BLU
9:56 am
V
64 °F 6¼ mi+ 18.000 ft 230° 230° 14 kt METAR EHVL 260756Z AUTO 23014KT 9999 BKN180 OVC230 18/14 Q1014 BLU
9:55 am
V
64 °F 6¼ mi+ 18.000 ft 230° 230° 15 kt METAR EHVL 260755Z AUTO 23015KT 9999 FEW012 SCT017 BKN180 18/14 Q1014 WHT
9:43 am
M
64 °F 6¼ mi+ 1.500 ft 240° 240° 16 kt METAR EHVL 260743Z AUTO 24016KT 9999 SCT013 BKN015 BKN024 18/15 Q1014 GRN
9:42 am
V
64 °F 6¼ mi+ 14.000 ft 240° 240° 15 kt METAR EHVL 260742Z AUTO 24015KT 9999 FEW013 SCT016 OVC140 18/15 Q1014 WHT
9:34 am
M
64 °F 6¼ mi+ 2.300 ft 230° 230° 16 kt METAR EHVL 260734Z AUTO 23016KT 9999 FEW012 SCT015 BKN023 18/15 Q1013 WHT
9:25 am
M
64 °F 6¼ mi+ 1.200 ft 230° 230° 15 kt METAR EHVL 260725Z AUTO 23015KT 9999 BKN012 BKN014 OVC022 18/15 Q1013 GRN
9:16 am
M
64 °F 6¼ mi+ 1.500 ft 240° 240° 15 kt METAR EHVL 260716Z AUTO 24015KT 9999 SCT012 BKN015 BKN026 18/14 Q1013 GRN
9:11 am
M
64 °F 6¼ mi+ 1.600 ft 230° 230° 15 kt METAR EHVL 260711Z AUTO 23015KT 9999 SCT012 BKN016 BKN020 18/14 Q1013 GRN
9:03 am
V
64 °F 6¼ mi+ 19.000 ft 230° 230° 13 kt METAR EHVL 260703Z AUTO 23013KT 9999 FEW012 SCT015 OVC190 18/14 Q1013 WHT
8:55 am
V
64 °F 6¼ mi+ - 230° 230° 13 kt METAR EHVL 260655Z AUTO 23013KT 9999 FEW012 SCT210 18/15 Q1013 BLU
8:26 am
V
63 °F 6¼ mi+ - 240° 240° 13 kt METAR EHVL 260626Z AUTO 24013KT 9999 FEW010 17/15 Q1013 BLU
8:25 am
V
63 °F 6¼ mi+ - 240° 240° 13 kt METAR EHVL 260625Z AUTO 24013KT 9999 SCT010 17/15 Q1013 GRN
8:15 am
V
63 °F 6¼ mi+ - 240° 240° 12 kt METAR EHVL 260615Z AUTO 24012KT 9999 SCT010 17/15 Q1012 GRN
7:59 am
V
63 °F 6¼ mi+ - 240° 240° 11 kt METAR EHVL 260559Z AUTO 24011KT 9999 FEW012 17/15 Q1012 BLU
7:55 am
V
63 °F 6¼ mi+ - 240° 240° 11 kt METAR EHVL 260555Z AUTO 24011KT 9999 SCT011 SCT016 17/14 Q1012 GRN
7:37 am
M
63 °F 6¼ mi+ 1.300 ft 230° 230° 7 kt METAR EHVL 260537Z AUTO 23007KT 9999 SCT010 BKN013 BKN016 17/15 Q1012 GRN
7:33 am
M
63 °F 6¼ mi+ 1.600 ft 230° 230° 6 kt METAR EHVL 260533Z AUTO 23006KT 9999 FEW010 SCT013 BKN016 17/15 Q1012 GRN
7:29 am
M
63 °F 6¼ mi+ 1.500 ft 230° 230° 6 kt METAR EHVL 260529Z AUTO 23006KT 9999 FEW012 BKN015 BKN019 17/15 Q1012 WHT
7:25 am
V
63 °F 6¼ mi+ - 240° 240° 5 kt METAR EHVL 260525Z AUTO 24005KT 9999 FEW013 SCT016 17/15 Q1012 WHT
6:55 am
V
61 °F 6¼ mi+ 7.600 ft 220° 220° 2 kt METAR EHVL 260455Z AUTO 22002KT 9999 FEW017 OVC076 16/15 Q1012 BLU
6:43 am
V
59 °F 6¼ mi+ - 190° 190° 2 kt METAR EHVL 260443Z AUTO 19002KT 9999 SCT016 15/14 Q1012 WHT
6:25 am
V
59 °F 6¼ mi+ - Var Var 2 kt METAR EHVL 260425Z AUTO VRB02KT 9999 SCT330 15/14 Q1012 BLU
5:55 am
V
59 °F 6¼ mi+ 20.000 ft 320° 320° 3 kt METAR EHVL 260355Z AUTO 32003KT 9999 FEW094 BKN200 15/14 Q1011 BLU
5:25 am
V
59 °F 6¼ mi+ 6.500 ft 300° 300° 7 kt METAR EHVL 260325Z AUTO 30007KT 9999 SCT040 BKN065 BKN074 15/14 Q1011 BLU
4:55 am
V
59 °F 6¼ mi+ 5.900 ft 310° 310° 10 kt METAR EHVL 260255Z AUTO 31010KT 9999 OVC059 15/14 Q1011 BLU
4:31 am
V
59 °F 6¼ mi+ 6.000 ft 300° 300° 12 kt METAR EHVL 260231Z AUTO 30012KT 9999 FEW006 FEW015CB BKN060 OVC066 15/14 Q1011 BLU
4:25 am
L
59 °F 6¼ mi+ 400 ft 290° 290° 13 kt METAR EHVL 260225Z AUTO 29013KT 9999 BKN004 BKN006 FEW015CB BKN026 15/15 Q1011 YLO
4:12 am
L
59 °F 6¼ mi+ 400 ft 290° 290° 14 kt METAR EHVL 260212Z AUTO 29014KT 9999 FEW003 BKN004 BKN011 FEW015CB 15/15 Q1011 YLO
4:11 am
M
59 °F 6¼ mi+ 1.600 ft 280° 280° 15 kt METAR EHVL 260211Z AUTO 28015KT 9999 FEW003 SCT004 FEW015CB BKN016 15/15 Q1011 YLO
4:07 am
V
61 °F 6¼ mi+ 9.100 ft 280° 280° 15 kt METAR EHVL 260207Z AUTO 28015KT 9999 -DZ FEW003 FEW015CB SCT016 OVC091 16/15 Q1011 WHT
3:56 am
V
61 °F 6¼ mi+ 8.000 ft 280° 280° 15 kt METAR EHVL 260156Z AUTO 28015KT 9999 -DZRA FEW015CB BKN080 OVC091 16/15 Q1011 BLU
3:55 am
V
61 °F 6¼ mi+ 8.100 ft 280° 280° 15 kt METAR EHVL 260155Z AUTO 28015KT 9999 -RA SCT076 OVC081 16/15 Q1011 BLU
3:36 am
M
61 °F 6¼ mi+ 2.300 ft 270° 270° 14 kt METAR EHVL 260136Z AUTO 27014KT 9999 FEW004 SCT016 BKN023 16/16 Q1011 WHT
3:26 am
M
63 °F 6¼ mi+ 1.300 ft 260° 260° 14 kt METAR EHVL 260126Z AUTO 26014KT 9999 -RA FEW002 SCT010 BKN013 17/16 Q1011 GRN
3:25 am
M
64 °F 6¼ mi+ 1.900 ft 250° 250° 15 kt METAR EHVL 260125Z AUTO 25015KT 9999 -RA FEW009 SCT016 BKN019 18/17 Q1011 RERA REDZ WHT
3:17 am
M
63 °F 6¼ mi+ 2.000 ft 150° 150° 11 kt METAR EHVL 260117Z AUTO 15011KT 9999 -RADZ FEW015CB BKN020 OVC026 17/17 Q1011 WHT
3:16 am
M
63 °F 6¼ mi+ 2.500 ft 150° 150° 12 kt METAR EHVL 260116Z AUTO 15012KT 9999 DZ FEW015CB SCT020 BKN025 17/17 Q1011 WHT
3:03 am
M
63 °F 6¼ mi+ 2.700 ft 140° 140° 12 kt METAR EHVL 260103Z AUTO 14012KT 9999 -DZRA FEW012 SCT015CB BKN027 17/17 Q1011 WHT
2:55 am
M
63 °F 5⅝ mi 1.500 ft 130° 130° 11 kt METAR EHVL 260055Z AUTO 13011KT 9000 -RA FEW001 BKN015CB BKN041 17/17 Q1011 RERA WHT
2:33 am
I
63 °F 2⅞ mi 9.000 ft 110° 110° 11 kt METAR EHVL 260033Z AUTO 11011KT 4600 SHRA FEW010 SCT015CB OVC090 17/16 Q1011 GRN
2:29 am
V
63 °F 6¼ mi+ 8.900 ft 110° 110° 12 kt METAR EHVL 260029Z AUTO 11012KT 9999 -RA FEW010 FEW015CB BKN089 OVC094 17/16 Q1011 BLU
2:25 am
V
63 °F 6¼ mi+ 8.800 ft 110° 110° 12 kt METAR EHVL 260025Z AUTO 11012KT 9999 FEW010 SCT015CB BKN088 OVC094 17/16 Q1011 WHT
2:08 am
V
63 °F 6¼ mi+ 3.200 ft 100° 100° 11 kt METAR EHVL 260008Z AUTO 10011KT 9999 -DZ SCT015CB SCT029 BKN032 17/16 Q1011 WHT
2:02 am
V
61 °F 6¼ mi+ 8.700 ft 090° 090° 10 kt METAR EHVL 260002Z AUTO 09010KT 9999 DZRA SCT015CB SCT041 OVC087 16/16 Q1011 WHT
1:55 am
V
61 °F 6¼ mi+ 8.700 ft 090° 090° 9 kt METAR EHVL 252355Z AUTO 09009KT 9999 -RA SCT015CB BKN087 OVC098 16/16 Q1011 RERA REDZ WHT
1:39 am
M
61 °F 3⅛ mi 3.500 ft 080° 080° 10 kt METAR EHVL 252339Z AUTO 08010KT 5000 -SHRA FEW015CB SCT027 BKN035 16/15 Q1011 WHT
1:32 am
V
61 °F 6¼ mi+ 4.600 ft 080° 080° 11 kt METAR EHVL 252332Z AUTO 08011KT 9999 DZRA FEW015CB BKN046 BKN058 16/15 Q1011 BLU
1:25 am
V
61 °F 6¼ mi+ 5.600 ft 080° 080° 12 kt METAR EHVL 252325Z AUTO 08012KT 9999 DZ FEW015CB SCT049 BKN056 BKN065 16/15 Q1011 BLU
1:18 am
V
61 °F 6¼ mi+ 5.100 ft 080° 080° 13 kt METAR EHVL 252318Z AUTO 08013KT 9999 DZRA FEW015CB SCT047 BKN051 OVC058 16/15 Q1011 BLU
12:55 am
V
61 °F 6¼ mi+ 9.400 ft 070° 070° 13 kt METAR EHVL 252255Z AUTO 07013KT 9999 FEW015CB BKN094 OVC100 16/15 Q1011 REDZ BLU
12:43 am
V
61 °F 6¼ mi+ 6.000 ft 070° 070° 12 kt METAR EHVL 252243Z AUTO 07012KT 9999 FEW011 FEW015CB BKN060 OVC091 16/15 Q1011 BLU
12:35 am
V
61 °F 6¼ mi+ 5.800 ft 070° 070° 13 kt METAR EHVL 252235Z AUTO 07013KT 9999 DZ FEW011 SCT022 BKN058 16/15 Q1011 WHT
12:25 am
V
61 °F 6¼ mi+ 6.200 ft 070° 070° 12 kt METAR EHVL 252225Z AUTO 07012KT 9999 FEW051 SCT056 BKN062 16/15 Q1011 BLU

25 czerwca 2022

Czas Kod Pogoda Temp. Widoczność Sufit Wiatr METAR/SPECI
11:56 pm
V
61 °F 6¼ mi+ 6.200 ft 080° 080° 13 kt METAR EHVL 252156Z AUTO 08013KT 9999 FEW008 FEW015CB SCT050 BKN062 16/15 Q1011 BLU
11:55 pm
V
61 °F 6¼ mi+ 5.000 ft 080° 080° 12 kt METAR EHVL 252155Z AUTO 08012KT 9999 FEW008 SCT009 FEW015CB BKN050 16/15 Q1011 GRN
11:36 pm
V
61 °F 6¼ mi+ 3.600 ft 070° 070° 10 kt METAR EHVL 252136Z AUTO 07010KT 9999 FEW002 FEW015CB BKN036 OVC040 16/15 Q1011 BLU
11:29 pm
V
61 °F 6¼ mi+ 3.600 ft 060° 060° 10 kt METAR EHVL 252129Z AUTO 06010KT 9999 -RA FEW004 SCT015CB BKN036 16/15 Q1011 WHT
11:25 pm
V
61 °F 6¼ mi+ 3.200 ft 070° 070° 10 kt METAR EHVL 252125Z AUTO 07010KT 9999 -SHRA FEW000 SCT013 SCT015CB BKN032 16/15 Q1012 RERA GRN
11:14 pm
I
61 °F 2⅞ mi 4.900 ft 080° 080° 10 kt METAR EHVL 252114Z AUTO 08010KT 4600 -SHRA FEW004 SCT009 SCT015CB BKN049 16/15 Q1012 GRN
11:13 pm
V
61 °F 6¼ mi+ 5.400 ft 080° 080° 11 kt METAR EHVL 252113Z AUTO 08011KT 9999 SHRA FEW007 FEW015CB BKN054 OVC062 16/15 Q1012 BLU
11:07 pm
M
61 °F 4⅜ mi 5.400 ft 080° 080° 11 kt METAR EHVL 252107Z AUTO 08011KT 7000 -SHRA FEW008 SCT015CB OVC054 16/15 Q1012 WHT
11:04 pm
V
61 °F 5 mi 5.300 ft 070° 070° 10 kt METAR EHVL 252104Z AUTO 07010KT 8000 -RA FEW009 SCT015CB BKN053 OVC063 16/15 Q1012 WHT
10:55 pm
M
61 °F 3¾ mi 1.000 ft 060° 060° 7 kt METAR EHVL 252055Z AUTO 06007KT 6000 SHRA FEW007 SCT008 BKN010 SCT015CB 16/15 Q1012 GRN
10:40 pm
M
61 °F 3¾ mi 6.800 ft 060° 060° 7 kt METAR EHVL 252040Z AUTO 06007KT 6000 SHRA FEW015CB SCT060 BKN068 16/15 Q1012 WHT
10:31 pm
M
61 °F 3⅛ mi 2.900 ft 070° 070° 7 kt METAR EHVL 252031Z AUTO 07007KT 5000 SHRA FEW015CB BKN029 BKN056 16/15 Q1012 WHT
10:25 pm
M
61 °F 6¼ mi+ 2.900 ft 080° 080° 5 kt METAR EHVL 252025Z AUTO 08005KT 9999 DZRA FEW015CB OVC029 16/15 Q1012 BLU
10:20 pm
M
61 °F 6¼ mi+ 2.900 ft 060° 060° 5 kt METAR EHVL 252020Z AUTO 06005KT 9999 -DZRA FEW015CB BKN029 OVC037 16/15 Q1012 BLU
9:55 pm
V
61 °F 6¼ mi+ 3.400 ft 030° 030° 4 kt METAR EHVL 251955Z AUTO 03004KT 9999 -DZ FEW015CB BKN034 OVC040 16/14 Q1012 RERA REDZ BLU
9:39 pm
V
61 °F 6¼ mi+ 4.500 ft 040° 040° 3 kt METAR EHVL 251939Z AUTO 04003KT 350V060 9999 -SHRA FEW006 FEW015CB SCT036 OVC045 16/14 Q1012 BLU
9:29 pm
M
61 °F 3⅛ mi 2.500 ft Var Var 2 kt METAR EHVL 251929Z AUTO VRB02KT 5000 -SHRA +DZ SCT015CB BKN025 BKN029 OVC033 16/14 Q1012 WHT
9:25 pm
V
61 °F 6¼ mi+ 4.400 ft Var Var 2 kt METAR EHVL 251925Z AUTO VRB02KT 9999 -RA FEW015CB SCT025 OVC044 16/14 Q1012 RERA REDZ BLU
9:13 pm
V
61 °F 5⅝ mi 3.300 ft 030° 030° 3 kt METAR EHVL 251913Z AUTO 03003KT 360V060 9000 RA FEW015CB BKN033 BKN045 OVC049 16/14 Q1012 BLU
9:07 pm
M
61 °F 3¾ mi 3.200 ft 040° 040° 3 kt METAR EHVL 251907Z AUTO 04003KT 6000 SHRA FEW015CB BKN032 OVC049 16/14 Q1012 WHT
8:56 pm
V
63 °F 5⅝ mi 3.300 ft 030° 030° 4 kt METAR EHVL 251856Z AUTO 03004KT 350V050 9000 -SHRA FEW015CB BKN033 OVC041 17/14 Q1012 BLU
8:55 pm
M
63 °F 4⅜ mi 3.500 ft 030° 030° 5 kt METAR EHVL 251855Z AUTO 03005KT 7000 SHRA FEW015CB BKN035 OVC041 17/14 Q1012 REDZ WHT
8:25 pm
V
63 °F 6¼ mi+ 4.100 ft 360° 360° 4 kt METAR EHVL 251825Z AUTO 36004KT 9999 OVC041 17/13 Q1011 BLU
7:55 pm
V
63 °F 6¼ mi+ 4.800 ft 010° 010° 5 kt METAR EHVL 251755Z AUTO 01005KT 9999 OVC048 17/13 Q1011 BLU
7:25 pm
V
64 °F 6¼ mi+ 6.500 ft 320° 320° 3 kt METAR EHVL 251725Z AUTO 32003KT 9999 FEW052 BKN065 OVC110 18/12 Q1011 BLU
6:55 pm
V
64 °F 6¼ mi+ 6.600 ft 330° 330° 4 kt METAR EHVL 251655Z AUTO 33004KT 9999 FEW056 OVC066 18/12 Q1011 BLU
6:25 pm
V
66 °F 6¼ mi+ 13.000 ft 300° 300° 5 kt METAR EHVL 251625Z AUTO 30005KT 9999 FEW064 OVC130 19/12 Q1011 BLU
5:55 pm
V
68 °F 6¼ mi+ 14.000 ft 280° 280° 6 kt METAR EHVL 251555Z AUTO 28006KT 9999 OVC140 20/12 Q1012 BLU
5:25 pm
V
68 °F 6¼ mi+ 30.000 ft 250° 250° 6 kt METAR EHVL 251525Z AUTO 25006KT 190V280 9999 FEW160 OVC300 20/12 Q1012 BLU
4:55 pm
V
66 °F 6¼ mi+ 13.000 ft 240° 240° 11 kt METAR EHVL 251455Z AUTO 24011KT 9999 FEW060 OVC130 19/12 Q1012 BLU
4:25 pm
V
66 °F 6¼ mi+ 15.000 ft 240° 240° 13 kt METAR EHVL 251425Z AUTO 24013KT 9999 SCT045 OVC150 19/13 Q1012 BLU
3:55 pm
V
66 °F 6¼ mi+ 5.100 ft 230° 230° 9 kt METAR EHVL 251355Z AUTO 23009KT 9999 SCT034 BKN051 BKN057 19/12 Q1012 BLU
Starsze dane

Pobierz naszą aplikację

Łatwy dostęp do całej pogody lotniczej na telefonie komórkowym i tablecie.
Z wieloma funkcjami niedostępnymi na stronie internetowej, takimi jak wsparcie offline i osobista lista lotnisk.

My i osoby trzecie śledzimy twoje zachowanie w internecie na naszej stronie za pomocą plików cookie. Jeśli kontynuujesz, zakładamy, że zgadzasz się z naszą polityką plików cookie. Dowiedz się więcej